Clarksburg, WV

1:09 PM EDT on September 05, 2015 (GMT -0400)
North View | | Change Station
CLOSE
Current Station
Personal Weather Station
Location: Clarksburg, WV
Elevation: 1045 ft
Nearby Weather Stations

Elev 1045 ft 39.30 °N, 80.35 °W | Updated 28 seconds ago

Clear
Clear
92.4 °F
Feels Like 101 °F
N
0.0
Wind Variable Wind from ENE
Gusts 0.0 mph

Today
High -- | Low -- °F
--% Chance of Precip.
Yesterday
High -- | Low -- °F
Precip. -- in
6:53 AM 7:46 PM
Waning Gibbous, 47% visible
Pressure 30.15 in
Visibility 10.0 miles
Clouds Few 4200 ft
Few 10000 ft
Heat Index 101 °F
Dew Point 72 °F
Humidity 52%
Rainfall 0.01 in
Snow Depth Not available.
UV 8 out of 12
Pollen 9.60 out of 12
Air Quality Not available.
Flu Activity Not available.
METAR KCKB 051653Z 29005KT 10SM FEW042 FEW100 29/18 A3020 RMK AO2 SLP210 T02890183
Pressure 30.15 in
Visibility 10.0 miles
Clouds Few 4200 ft
Few 10000 ft
Heat Index 101 °F
Dew Point 72 °F
Humidity 52%
Rainfall 0.01 in
Snow Depth Not available.
UV 8 out of 12
Pollen 9.60 out of 12
Air Quality Not available.
Flu Activity Not available.
METAR KCKB 051653Z 29005KT 10SM FEW042 FEW100 29/18 A3020 RMK AO2 SLP210 T02890183

10-Day Weather Forecast

×

Almanac

Astronomy

Sep. 05, 2015 Rise Set
Actual Time
Civil Twilight
Nautical Twilight
Astronomical Twilight
Moon
Length of Visible Light
Length of Day
Tomorrow will be .
, % of the Moon is Illuminated

Today's Extremes

State Highs State Lows

Community

WunderPhotos

Upload Photos

1,852,503 photos uploaded!

WunderBlogs® & News

Nearby

Air Quality

  Air Quality AQ Index Pollutant
Not available.

Snow Depth

Station Depth Elevation

Earthquake Activity

City Distance Mag. Time & Date
Minimum magnitude displayed is 2.5.

Coastal Water Temperatures

Place Temperature

Stations

Nearby Weather Stations

Station Location Temp. Windchill Dew Point Humidity Wind Precip. Elev Updated Type